createdAt,value
2018-10-17T00:00:53.273Z,31.09
2018-10-17T00:01:53.221Z,30.61
2018-10-17T00:02:53.197Z,30.13
2018-10-17T00:03:53.167Z,30.13
2018-10-17T00:04:53.181Z,30.03
2018-10-17T00:05:53.118Z,30.22
2018-10-17T00:06:53.106Z,30.03
2018-10-17T00:07:53.064Z,29.84
2018-10-17T00:08:53.036Z,30.22
2018-10-17T00:09:53.013Z,29.84
2018-10-17T00:10:53.000Z,30.13
2018-10-17T00:11:52.957Z,30.13
2018-10-17T00:12:52.974Z,29.94
2018-10-17T00:13:52.903Z,30.03
2018-10-17T00:14:52.877Z,30.13
2018-10-17T00:15:52.851Z,30.32
2018-10-17T00:16:52.871Z,29.84
2018-10-17T00:17:52.803Z,29.65
2018-10-17T00:18:52.801Z,29.36
2018-10-17T00:19:52.747Z,29.27
2018-10-17T00:20:52.719Z,29.06
2018-10-17T00:21:52.692Z,28.22
2018-10-17T00:22:52.681Z,27.64
2018-10-17T00:23:52.639Z,25.92
2018-10-17T00:24:52.623Z,25.15
2018-10-17T00:25:52.589Z,25.45
2018-10-17T00:26:52.561Z,25.26
2018-10-17T00:27:52.536Z,25.26
2018-10-17T00:28:52.510Z,25.26
2018-10-17T00:29:52.487Z,25.26
2018-10-17T00:30:52.522Z,24.88
2018-10-17T00:31:52.431Z,25.07
2018-10-17T00:32:52.406Z,24.79
2018-10-17T00:33:52.377Z,24.88
2018-10-17T00:34:52.393Z,24.88
2018-10-17T00:35:52.322Z,24.98
2018-10-17T00:36:52.309Z,25.16
2018-10-17T00:37:52.276Z,25.07
2018-10-17T00:38:52.252Z,25.16
2018-10-17T00:39:52.217Z,25.26
2018-10-17T00:40:52.229Z,25.25
2018-10-17T00:41:52.172Z,25.26
2018-10-17T00:42:52.155Z,25.07
2018-10-17T00:43:52.112Z,25.07
2018-10-17T00:44:52.083Z,25.16
2018-10-17T00:45:52.059Z,25.26
2018-10-17T00:46:52.036Z,25.07
2018-10-17T00:47:52.006Z,24.98
2018-10-17T00:48:52.021Z,24.88
2018-10-17T00:49:51.954Z,25.16
2018-10-17T00:50:51.926Z,25.07
2018-10-17T00:51:51.900Z,25.15
2018-10-17T00:52:51.916Z,25.35
2018-10-17T00:53:51.848Z,25.15
2018-10-17T00:54:51.824Z,25.54
2018-10-17T00:55:51.795Z,25.06
2018-10-17T00:56:51.788Z,25.15
2018-10-17T00:57:51.745Z,24.87
2018-10-17T00:58:51.757Z,25.06
2018-10-17T00:59:51.690Z,24.96
2018-10-17T01:00:51.676Z,25.06
2018-10-17T01:01:51.638Z,25.15
2018-10-17T01:02:51.860Z,25.15
2018-10-17T01:03:51.583Z,25.15
2018-10-17T01:04:51.586Z,25.35
2018-10-17T01:05:51.533Z,24.96
2018-10-17T01:06:51.528Z,25.25
2018-10-17T01:07:51.477Z,25.25
2018-10-17T01:08:51.455Z,25.15
2018-10-17T01:09:51.425Z,24.96
2018-10-17T01:10:51.447Z,24.68
2018-10-17T01:11:51.377Z,24.09
2018-10-17T01:12:51.348Z,24.01
2018-10-17T01:13:51.319Z,23.62
2018-10-17T01:14:51.293Z,23.42
2018-10-17T01:15:51.265Z,23.04
2018-10-17T01:16:51.293Z,22.38
2018-10-17T01:17:51.215Z,22.38
2018-10-17T01:18:51.203Z,21.33
2018-10-17T01:19:51.164Z,21.04
2018-10-17T01:20:51.134Z,20.75
2018-10-17T01:21:51.107Z,20.94
2018-10-17T01:22:51.090Z,21.32
2018-10-17T01:23:51.056Z,21.41
2018-10-17T01:24:51.035Z,21.32
2018-10-17T01:25:51.002Z,21.41
2018-10-17T01:26:50.974Z,21.03
2018-10-17T01:27:50.947Z,20.84
2018-10-17T01:28:50.970Z,20.36
2018-10-17T01:29:50.899Z,20.26
2018-10-17T01:30:50.870Z,19.98
2018-10-17T01:31:50.842Z,19.21
2018-10-17T01:32:50.867Z,18.93
2018-10-17T01:33:50.789Z,18.83
2018-10-17T01:34:50.766Z,18.35
2018-10-17T01:35:50.737Z,18.26
2018-10-17T01:36:50.730Z,17.78
2018-10-17T01:37:50.690Z,17.88
2018-10-17T01:38:50.661Z,17.78
2018-10-17T01:39:50.631Z,17.88
2018-10-17T01:40:50.651Z,18.26
2018-10-17T01:41:50.576Z,17.88
2018-10-17T01:42:50.551Z,17.68
2018-10-17T01:43:50.548Z,17.40
2018-10-17T01:44:50.497Z,17.11
2018-10-17T01:45:50.472Z,17.21
2018-10-17T01:46:50.445Z,17.30
2018-10-17T01:47:50.416Z,17.21
2018-10-17T01:48:50.392Z,17.30
2018-10-17T01:49:50.365Z,17.40
2018-10-17T01:50:50.336Z,17.40
2018-10-17T01:51:50.313Z,17.40
2018-10-17T01:52:50.283Z,17.21
2018-10-17T01:53:50.257Z,17.29
2018-10-17T01:54:50.229Z,17.58
2018-10-17T01:55:50.203Z,17.49
2018-10-17T01:56:50.176Z,17.20
2018-10-17T01:57:50.150Z,17.00
2018-10-17T01:58:50.129Z,17.02
2018-10-17T01:59:50.098Z,17.21
2018-10-17T02:00:50.073Z,16.82
2018-10-17T02:01:50.045Z,17.10
2018-10-17T02:02:50.035Z,16.82
2018-10-17T02:03:49.989Z,17.10
2018-10-17T02:04:49.965Z,17.10
2018-10-17T02:05:49.936Z,17.29
2018-10-17T02:06:49.910Z,17.20
2018-10-17T02:07:49.883Z,16.82
2018-10-17T02:08:49.856Z,16.82
2018-10-17T02:09:49.831Z,16.72
2018-10-17T02:10:49.802Z,16.63
2018-10-17T02:11:49.776Z,16.72
2018-10-17T02:12:49.749Z,16.72
2018-10-17T02:13:49.722Z,16.72
2018-10-17T02:14:49.695Z,16.82
2018-10-17T02:15:49.672Z,16.82
2018-10-17T02:16:49.649Z,16.82
2018-10-17T02:17:49.617Z,16.63
2018-10-17T02:18:49.590Z,16.63
2018-10-17T02:19:49.562Z,16.82
2018-10-17T02:20:49.535Z,16.72
2018-10-17T02:21:49.511Z,16.43
2018-10-17T02:22:49.481Z,16.34
2018-10-17T02:23:49.458Z,16.43
2018-10-17T02:24:49.435Z,16.43
2018-10-17T02:25:49.404Z,16.43
2018-10-17T02:26:49.374Z,16.34
2018-10-17T02:27:49.347Z,16.53
2018-10-17T02:28:49.322Z,16.72
2018-10-17T02:29:49.297Z,16.82
2018-10-17T02:30:49.273Z,17.10
2018-10-17T02:31:49.241Z,16.72
2018-10-17T02:32:49.221Z,16.63
2018-10-17T02:33:49.186Z,16.43
2018-10-17T02:34:49.160Z,16.43
2018-10-17T02:35:49.140Z,16.43
2018-10-17T02:36:49.106Z,16.53
2018-10-17T02:37:49.135Z,16.05
2018-10-17T02:38:49.055Z,16.05
2018-10-17T02:39:49.163Z,15.95
2018-10-17T02:40:49.003Z,15.67
2018-10-17T02:41:48.972Z,15.57
2018-10-17T02:42:48.944Z,15.67
2018-10-17T02:43:48.922Z,15.57
2018-10-17T02:44:48.891Z,15.67
2018-10-17T02:45:48.873Z,15.95
2018-10-17T02:46:48.839Z,15.95
2018-10-17T02:47:48.810Z,15.86
2018-10-17T02:48:48.787Z,15.77
2018-10-17T02:49:48.960Z,15.86
2018-10-17T02:50:48.932Z,16.14
2018-10-17T02:51:48.905Z,16.24
2018-10-17T02:52:48.677Z,16.24
2018-10-17T02:53:48.648Z,16.04
2018-10-17T02:54:48.825Z,16.14
2018-10-17T02:55:48.798Z,15.86
2018-10-17T02:56:48.568Z,15.67
2018-10-17T02:57:48.542Z,15.77
2018-10-17T02:58:48.514Z,15.67
2018-10-17T02:59:48.486Z,15.19
2018-10-17T03:00:48.466Z,15.48
2018-10-17T03:01:48.435Z,15.67
2018-10-17T03:02:48.407Z,15.00
2018-10-17T03:03:48.583Z,15.29
2018-10-17T03:04:48.352Z,15.00
2018-10-17T03:05:48.338Z,15.29
2018-10-17T03:06:48.300Z,15.29
2018-10-17T03:07:48.324Z,15.09
2018-10-17T03:08:48.246Z,15.29
2018-10-17T03:09:48.220Z,15.29
2018-10-17T03:10:48.190Z,15.38
2018-10-17T03:11:48.167Z,15.48
2018-10-17T03:12:48.137Z,15.38
2018-10-17T03:13:48.115Z,15.19
2018-10-17T03:14:48.285Z,15.29
2018-10-17T03:15:48.059Z,15.38
2018-10-17T03:16:49.045Z,15.38
2018-10-17T03:17:48.008Z,15.29
2018-10-17T03:18:47.975Z,15.38
2018-10-17T03:19:47.949Z,15.57
2018-10-17T03:20:47.921Z,15.19
2018-10-17T03:21:47.894Z,15.29
2018-10-17T03:22:47.871Z,15.48
2018-10-17T03:23:47.841Z,15.38
2018-10-17T03:24:47.816Z,15.38
2018-10-17T03:25:47.789Z,15.57
2018-10-17T03:26:47.760Z,15.48
2018-10-17T03:27:47.815Z,15.19
2018-10-17T03:28:47.705Z,15.48
2018-10-17T03:29:47.679Z,15.57
2018-10-17T03:30:47.652Z,15.29
2018-10-17T03:31:47.623Z,15.19
2018-10-17T03:32:47.599Z,15.29
2018-10-17T03:33:47.571Z,15.37
2018-10-17T03:34:47.543Z,15.38
2018-10-17T03:35:47.545Z,15.29
2018-10-17T03:36:47.489Z,15.38
2018-10-17T03:37:47.463Z,15.67
2018-10-17T03:38:47.442Z,15.57
2018-10-17T03:39:47.409Z,15.47
2018-10-17T03:40:47.384Z,15.57
2018-10-17T03:41:47.361Z,15.57
2018-10-17T03:42:47.334Z,15.67
2018-10-17T03:43:47.303Z,15.67
2018-10-17T03:44:47.275Z,15.67
2018-10-17T03:45:47.252Z,15.95
2018-10-17T03:46:47.220Z,16.04
2018-10-17T03:47:47.192Z,16.33
2018-10-17T03:48:47.169Z,16.34
2018-10-17T03:49:47.177Z,16.53
2018-10-17T03:50:47.113Z,16.43
2018-10-17T03:51:47.084Z,16.43
2018-10-17T03:52:47.058Z,16.24
2018-10-17T03:53:47.031Z,16.72
2018-10-17T03:54:47.005Z,15.86
2018-10-17T03:55:46.983Z,16.34
2018-10-17T03:56:46.949Z,16.42
2018-10-17T03:57:46.924Z,16.42
2018-10-17T03:58:46.895Z,16.61
2018-10-17T03:59:46.948Z,16.61
2018-10-17T04:00:46.845Z,16.90
2018-10-17T04:01:46.819Z,16.71
2018-10-17T04:02:46.867Z,17.29
2018-10-17T04:03:46.767Z,17.00
2018-10-17T04:04:46.734Z,17.00
2018-10-17T04:05:46.707Z,17.19
2018-10-17T04:06:46.680Z,17.00
2018-10-17T04:07:46.653Z,17.38
2018-10-17T04:08:46.628Z,17.38
2018-10-17T04:09:46.602Z,17.38
2018-10-17T04:10:46.573Z,17.38
2018-10-17T04:11:46.548Z,17.95
2018-10-17T04:12:46.519Z,17.66
2018-10-17T04:13:46.494Z,17.76
2018-10-17T04:14:46.466Z,17.66
2018-10-17T04:15:46.441Z,17.86
2018-10-17T04:16:46.411Z,17.86
2018-10-17T04:17:46.388Z,17.66
2018-10-17T04:18:46.355Z,17.57
2018-10-17T04:19:46.333Z,17.66
2018-10-17T04:20:46.311Z,17.76
2018-10-17T04:21:46.285Z,18.05
2018-10-17T04:22:46.447Z,17.95
2018-10-17T04:23:46.222Z,18.15
2018-10-17T04:24:46.204Z,18.05
2018-10-17T04:25:46.167Z,18.05
2018-10-17T04:26:46.139Z,17.95
2018-10-17T04:27:46.113Z,17.95
2018-10-17T04:28:46.087Z,18.05
2018-10-17T04:29:46.060Z,18.15
2018-10-17T04:30:46.032Z,18.05
2018-10-17T04:31:46.005Z,18.24
2018-10-17T04:32:45.981Z,18.33
2018-10-17T04:33:45.954Z,18.62
2018-10-17T04:34:45.942Z,18.72
2018-10-17T04:35:45.902Z,18.72
2018-10-17T04:36:45.869Z,19.01
2018-10-17T04:37:45.844Z,18.91
2018-10-17T04:38:45.819Z,19.01
2018-10-17T04:39:45.790Z,19.01
2018-10-17T04:40:45.764Z,18.91
2018-10-17T04:41:45.738Z,19.01
2018-10-17T04:42:45.712Z,19.10
2018-10-17T04:43:45.692Z,19.10
2018-10-17T04:44:45.656Z,19.01
2018-10-17T04:45:45.637Z,18.91
2018-10-17T04:46:45.600Z,19.38
2018-10-17T04:47:45.634Z,19.48
2018-10-17T04:48:45.748Z,19.48
2018-10-17T04:49:45.721Z,19.67
2018-10-17T04:50:45.695Z,19.67
2018-10-17T04:51:45.465Z,19.86
2018-10-17T04:52:45.443Z,19.78
2018-10-17T04:53:45.615Z,19.67
2018-10-17T04:54:45.588Z,19.86
2018-10-17T04:55:45.561Z,19.67
2018-10-17T04:56:45.330Z,19.77
2018-10-17T04:57:45.303Z,20.06
2018-10-17T04:58:45.477Z,19.77
2018-10-17T04:59:45.250Z,19.57
2018-10-17T05:00:45.222Z,19.77
2018-10-17T05:01:45.195Z,19.86
2018-10-17T05:02:45.165Z,19.86
2018-10-17T05:03:45.140Z,19.86
2018-10-17T05:04:45.174Z,19.96
2018-10-17T05:05:45.090Z,19.96
2018-10-17T05:06:45.107Z,19.77
2018-10-17T05:07:45.033Z,19.77
2018-10-17T05:08:45.012Z,19.96
2018-10-17T05:09:44.978Z,19.96
2018-10-17T05:10:44.954Z,19.86
2018-10-17T05:11:44.923Z,19.96
2018-10-17T05:12:44.898Z,19.77
2018-10-17T05:13:44.871Z,19.77
2018-10-17T05:14:44.847Z,19.96
2018-10-17T05:15:44.817Z,20.06
2018-10-17T05:16:44.800Z,19.96
2018-10-17T05:17:44.768Z,20.25
2018-10-17T05:18:44.735Z,20.15
2018-10-17T05:19:44.708Z,20.06
2018-10-17T05:20:44.678Z,20.34
2018-10-17T05:21:44.660Z,20.34
2018-10-17T05:22:44.625Z,20.15
2018-10-17T05:23:44.601Z,20.15
2018-10-17T05:24:44.574Z,20.15
2018-10-17T05:25:44.547Z,20.06
2018-10-17T05:26:44.526Z,20.25
2018-10-17T05:27:44.495Z,20.35
2018-10-17T05:28:44.463Z,20.35
2018-10-17T05:29:44.644Z,20.26
2018-10-17T05:30:44.410Z,19.97
2018-10-17T05:31:44.382Z,20.45
2018-10-17T05:32:44.358Z,20.45
2018-10-17T05:33:44.329Z,20.45
2018-10-17T05:34:44.300Z,20.83
2018-10-17T05:35:44.278Z,20.92
2018-10-17T05:36:44.252Z,21.12
2018-10-17T05:37:44.345Z,21.31
2018-10-17T05:38:44.195Z,21.41
2018-10-17T05:39:44.168Z,21.12
2018-10-17T05:40:44.139Z,21.50
2018-10-17T05:41:44.112Z,21.21
2018-10-17T05:42:44.085Z,21.50
2018-10-17T05:43:44.060Z,21.88
2018-10-17T05:44:44.036Z,21.78
2018-10-17T05:45:44.012Z,21.97
2018-10-17T05:46:43.980Z,22.36
2018-10-17T05:47:43.951Z,22.55
2018-10-17T05:48:43.926Z,22.83
2018-10-17T05:49:43.897Z,23.32
2018-10-17T05:50:43.875Z,23.22
2018-10-17T05:51:43.843Z,23.79
2018-10-17T05:52:43.818Z,23.98
2018-10-17T05:53:43.792Z,24.18
2018-10-17T05:54:43.764Z,24.94
2018-10-17T05:55:43.740Z,25.03
2018-10-17T05:56:43.713Z,25.13
2018-10-17T05:57:43.681Z,25.42
2018-10-17T05:58:43.656Z,25.32
2018-10-17T05:59:43.633Z,25.89
2018-10-17T06:00:43.603Z,25.99
2018-10-17T06:01:43.744Z,26.09
2018-10-17T06:02:43.548Z,26.28
2018-10-17T06:03:43.523Z,26.28
2018-10-17T06:04:43.697Z,26.37
2018-10-17T06:05:43.674Z,26.46
2018-10-17T06:06:43.692Z,27.04
2018-10-17T06:07:43.417Z,27.42
2018-10-17T06:08:43.387Z,27.33
2018-10-17T06:09:43.364Z,27.90
2018-10-17T06:10:43.336Z,27.80
2018-10-17T06:11:43.305Z,28.19
2018-10-17T06:12:43.281Z,28.68
2018-10-17T06:13:43.254Z,29.25
2018-10-17T06:14:43.229Z,30.40
2018-10-17T06:15:43.209Z,31.26
2018-10-17T06:16:43.378Z,32.41
2018-10-17T06:17:43.347Z,33.56
2018-10-17T06:18:43.168Z,34.32
2018-10-17T06:19:43.295Z,36.14
2018-10-17T06:20:43.273Z,37.68
2018-10-17T06:21:43.044Z,38.54
2018-10-17T06:22:43.215Z,39.12
2018-10-17T06:23:43.188Z,41.22
2018-10-17T06:24:43.164Z,42.94
2018-10-17T06:25:43.138Z,43.80
2018-10-17T06:26:43.108Z,44.86
2018-10-17T06:27:42.881Z,46.96
2018-10-17T06:28:42.853Z,48.52
2018-10-17T06:29:42.826Z,51.01
2018-10-17T06:30:42.843Z,53.20
2018-10-17T06:31:42.777Z,56.39
2018-10-17T06:32:42.749Z,60.41
2018-10-17T06:33:42.932Z,64.59
2018-10-17T06:34:42.733Z,66.32
2018-10-17T06:35:42.671Z,68.23
2018-10-17T06:36:42.643Z,69.19
2018-10-17T06:37:42.621Z,68.65
2018-10-17T06:39:24.945Z,72.86
2018-10-17T06:40:24.918Z,76.12
2018-10-17T06:41:24.689Z,77.69
2018-10-17T06:42:25.170Z,80.04
2018-10-17T06:43:24.688Z,80.66
2018-10-17T06:44:24.620Z,82.19
2018-10-17T06:45:24.590Z,84.39
2018-10-17T06:46:24.560Z,85.64
2018-10-17T06:47:24.536Z,86.35
2018-10-17T06:48:24.712Z,87.12
2018-10-17T06:49:24.514Z,88.84
2018-10-17T06:50:24.464Z,89.90
2018-10-17T06:52:06.792Z,92.63
2018-10-17T06:53:06.831Z,92.58
2018-10-17T06:54:06.944Z,92.63
2018-10-17T06:55:06.587Z,94.26
2018-10-17T06:56:48.838Z,95.17
2018-10-17T06:57:48.843Z,98.82
2018-10-17T06:58:48.589Z,98.62
2018-10-17T06:59:48.565Z,99.34
2018-10-17T07:00:48.539Z,99.44
2018-10-17T07:01:48.601Z,99.99
2018-10-17T07:02:48.490Z,99.99
2018-10-17T07:03:48.465Z,99.99
2018-10-17T07:04:48.642Z,99.99
2018-10-17T07:05:48.619Z,99.99
2018-10-17T07:06:48.393Z,99.99
2018-10-17T07:07:48.372Z,99.99
2018-10-17T07:08:48.547Z,99.99
2018-10-17T07:09:48.319Z,99.99
2018-10-17T07:10:52.355Z,99.99
2018-10-17T07:28:40.451Z,93.16
2018-10-17T07:29:39.987Z,93.63
2018-10-17T07:30:39.838Z,93.63
2018-10-17T07:31:39.816Z,94.21
2018-10-17T07:32:39.810Z,93.54
2018-10-17T07:33:39.766Z,92.68
2018-10-17T07:34:39.746Z,93.11
2018-10-17T07:35:39.780Z,93.59
2018-10-17T07:36:39.691Z,93.78
2018-10-17T07:37:39.665Z,93.88
2018-10-17T07:38:39.641Z,94.74
2018-10-17T07:39:39.620Z,94.26
2018-10-17T07:40:39.595Z,93.68
2018-10-17T07:41:39.578Z,94.07
2018-10-17T07:42:39.548Z,94.17
2018-10-17T07:43:39.523Z,95.03
2018-10-17T07:44:39.503Z,94.64
2018-10-17T08:24:18.063Z,97.52
2018-10-17T08:25:17.948Z,96.75
2018-10-17T08:26:17.928Z,96.85
2018-10-17T08:27:17.967Z,96.18
2018-10-17T08:28:17.676Z,96.18
2018-10-17T08:29:17.853Z,96.18
2018-10-17T08:30:17.750Z,97.42
2018-10-17T08:31:17.603Z,97.91
2018-10-17T08:32:17.580Z,97.81
2018-10-17T08:33:17.769Z,98.29
2018-10-17T08:34:17.734Z,98.48
2018-10-17T08:35:17.775Z,99.49
2018-10-17T08:36:17.740Z,98.53
2018-10-17T08:37:17.934Z,99.58
2018-10-17T08:38:59.794Z,98.34
2018-10-17T08:39:59.571Z,98.24
2018-10-17T08:40:59.558Z,99.40
2018-10-17T08:41:59.575Z,98.72
2018-10-17T08:42:59.506Z,98.53
2018-10-17T08:43:59.519Z,98.14
2018-10-17T08:44:59.461Z,98.53
2018-10-17T08:45:59.438Z,98.14
2018-10-17T08:46:59.414Z,98.72
2018-10-17T08:47:59.385Z,98.14
2018-10-17T08:48:59.365Z,98.43
2018-10-17T08:49:59.417Z,98.34
2018-10-17T08:51:00.351Z,97.61
2018-10-17T08:51:59.505Z,97.76
2018-10-17T08:52:59.273Z,97.86
2018-10-17T08:53:59.250Z,97.57
2018-10-17T08:54:59.228Z,97.47
2018-10-17T08:55:59.239Z,97.33
2018-10-17T08:56:59.181Z,97.09
2018-10-17T08:57:59.259Z,97.38
2018-10-17T08:58:59.135Z,98.43
2018-10-17T08:59:59.109Z,98.43
2018-10-17T09:00:59.091Z,98.63
2018-10-17T09:01:59.142Z,98.63
2018-10-17T09:02:59.046Z,99.44
2018-10-17T09:03:59.029Z,99.73
2018-10-17T09:04:59.301Z,99.99
2018-10-17T09:05:59.053Z,98.86
2018-10-17T09:06:58.952Z,99.44
2018-10-17T09:07:58.985Z,99.30
2018-10-17T09:08:58.906Z,99.99
2018-10-17T09:09:58.883Z,99.99
2018-10-17T09:10:59.113Z,99.99
2018-10-17T09:11:58.841Z,99.99
2018-10-17T09:12:58.816Z,99.99
2018-10-17T09:13:58.828Z,99.99
2018-10-17T09:14:58.977Z,99.99
2018-10-17T09:15:58.807Z,99.99
2018-10-17T09:16:58.730Z,99.99
2018-10-17T09:17:58.771Z,99.99
2018-10-17T09:18:58.887Z,99.99
2018-10-17T09:19:58.933Z,99.99
2018-10-17T09:20:59.149Z,99.99
2018-10-17T09:21:59.022Z,99.99
2018-10-17T09:22:58.801Z,99.99
2018-10-17T09:23:58.806Z,99.99
2018-10-17T09:24:58.781Z,99.99
2018-10-17T09:27:23.043Z,99.99
2018-10-17T09:28:23.023Z,99.99
2018-10-17T09:29:23.006Z,99.99
2018-10-17T09:30:23.151Z,99.99
2018-10-17T09:31:22.961Z,99.99
2018-10-17T09:32:22.953Z,99.99
2018-10-17T09:33:22.921Z,99.99
2018-10-17T09:34:22.904Z,99.99
2018-10-17T09:35:22.881Z,99.99
2018-10-17T09:36:22.870Z,99.99
2018-10-17T09:37:22.846Z,99.99
2018-10-17T09:38:22.826Z,99.99
2018-10-17T09:39:22.800Z,99.99
2018-10-17T09:40:22.575Z,99.99
2018-10-17T09:41:22.557Z,99.99
2018-10-17T09:42:22.739Z,99.99
2018-10-17T09:43:22.623Z,99.99
2018-10-17T09:44:22.500Z,99.99
2018-10-17T09:45:22.680Z,99.99
2018-10-17T09:46:22.869Z,99.32
2018-10-17T09:48:04.857Z,99.99
2018-10-17T09:49:04.584Z,99.99
2018-10-17T09:52:57.011Z,99.17
2018-10-17T09:53:53.170Z,96.21
2018-10-17T09:54:53.338Z,94.60
2018-10-17T09:55:53.321Z,94.22
2018-10-17T09:56:53.100Z,93.98
2018-10-17T09:57:53.133Z,93.69
2018-10-17T09:58:53.061Z,94.51
2018-10-17T09:59:53.050Z,96.02
2018-10-17T10:00:53.025Z,96.98
2018-10-17T10:01:53.004Z,97.38
2018-10-17T10:02:52.993Z,97.86
2018-10-17T10:03:52.991Z,96.55
2018-10-17T10:04:52.951Z,95.43
2018-10-17T10:05:52.974Z,93.59
2018-10-17T10:06:52.914Z,92.57
2018-10-17T10:07:52.894Z,91.11
2018-10-17T10:08:53.083Z,92.47
2018-10-17T10:09:52.871Z,90.52
2018-10-17T10:10:52.853Z,87.40
2018-10-17T10:11:53.034Z,86.63
2018-10-17T10:12:52.803Z,84.88
2018-10-17T10:13:52.985Z,83.46
2018-10-17T10:14:52.767Z,82.00
2018-10-17T10:15:52.782Z,81.20
2018-10-17T10:16:52.782Z,80.93
2018-10-17T10:17:52.716Z,80.15
2018-10-17T10:18:52.697Z,82.95
2018-10-17T10:19:52.687Z,87.96
2018-10-17T10:20:52.661Z,88.73
2018-10-17T10:21:52.649Z,86.64
2018-10-17T10:23:35.027Z,83.61
2018-10-17T10:24:34.837Z,81.90
2018-10-17T10:25:34.748Z,81.02
2018-10-17T10:26:34.733Z,80.64
2018-10-17T10:27:34.716Z,79.47
2018-10-17T10:28:34.756Z,79.41
2018-10-17T10:29:34.710Z,78.63
2018-10-17T10:36:54.277Z,80.36
2018-10-17T10:37:54.057Z,80.76
2018-10-17T10:38:54.242Z,81.53
2018-10-17T10:39:54.090Z,81.73
2018-10-17T10:40:54.008Z,82.46
2018-10-17T10:41:54.019Z,81.53
2018-10-17T10:42:53.974Z,81.93
2018-10-17T10:43:53.958Z,82.46
2018-10-17T10:44:53.989Z,80.94
2018-10-17T10:45:53.923Z,79.43
2018-10-17T10:46:53.905Z,78.46
2018-10-17T10:47:53.900Z,77.78
2018-10-17T10:48:53.879Z,80.66
2018-10-17T10:49:53.889Z,80.07
2018-10-17T10:50:53.906Z,78.36
2018-10-17T10:51:53.825Z,77.82
2018-10-17T10:52:53.835Z,76.45
2018-10-17T10:53:53.868Z,76.94
2018-10-17T10:54:53.777Z,78.94
2018-10-17T10:55:53.825Z,78.20
2018-10-17T10:56:53.965Z,78.36
2018-10-17T10:57:53.743Z,80.48
2018-10-17T10:58:53.791Z,83.00
2018-10-17T10:59:53.764Z,83.25
2018-10-17T11:00:53.685Z,84.67
2018-10-17T11:01:53.667Z,86.66
2018-10-17T11:02:53.666Z,87.29
2018-10-17T11:03:53.629Z,87.13
2018-10-17T11:04:53.660Z,86.94
2018-10-17T11:05:53.595Z,86.60
2018-10-17T11:06:53.580Z,82.50
2018-10-17T11:07:53.583Z,83.04
2018-10-17T11:08:53.551Z,84.66
2018-10-17T11:09:53.535Z,85.63
2018-10-17T11:10:53.541Z,83.53
2018-10-17T11:11:53.504Z,84.94
2018-10-17T11:12:53.491Z,84.36
2018-10-17T11:13:53.491Z,83.63
2018-10-17T11:14:53.744Z,83.04
2018-10-17T11:15:53.439Z,83.53
2018-10-17T11:16:53.459Z,84.31
2018-10-17T11:17:53.400Z,84.41
2018-10-17T11:18:53.382Z,85.78
2018-10-17T11:19:53.375Z,85.24
2018-10-17T11:20:53.405Z,85.00
2018-10-17T11:21:53.439Z,86.32
2018-10-17T11:22:53.325Z,87.73
2018-10-17T11:23:53.327Z,88.95
2018-10-17T11:24:53.292Z,89.09
2018-10-17T11:25:53.270Z,87.68
2018-10-17T11:26:53.265Z,88.65
2018-10-17T11:27:53.236Z,88.30
2018-10-17T11:28:53.238Z,85.72
2018-10-17T11:29:53.200Z,82.42
2018-10-17T11:30:53.185Z,83.00
2018-10-17T11:31:53.206Z,78.03
2018-10-17T11:32:53.209Z,77.15
2018-10-17T11:33:53.136Z,78.75
2018-10-17T11:34:53.138Z,79.68
2018-10-17T11:35:53.110Z,79.94
2018-10-17T11:36:53.085Z,79.55
2018-10-17T11:37:53.088Z,81.01
2018-10-17T11:38:53.062Z,79.14
2018-10-17T11:39:53.093Z,77.97
2018-10-17T11:40:53.093Z,76.75
2018-10-17T11:41:53.003Z,75.38
2018-10-17T11:42:52.995Z,74.26
2018-10-17T11:43:52.976Z,74.84
2018-10-17T11:44:52.960Z,74.68
2018-10-17T11:45:52.943Z,74.99
2018-10-17T11:46:52.972Z,74.19
2018-10-17T11:47:53.141Z,73.32
2018-10-17T11:55:12.512Z,72.15
2018-10-17T11:56:12.698Z,70.98
2018-10-17T11:59:19.025Z,70.53
2018-10-17T12:00:18.733Z,70.78
2018-10-17T12:01:18.717Z,70.88
2018-10-17T12:06:31.926Z,69.36
2018-10-17T12:07:31.632Z,69.65
2018-10-17T12:11:20.509Z,69.29
2018-10-17T12:12:20.263Z,69.00
2018-10-17T12:13:20.420Z,68.03
2018-10-17T12:14:20.228Z,68.80
2018-10-17T12:15:20.490Z,68.87
2018-10-17T12:38:49.442Z,71.62
2018-10-17T12:39:49.286Z,71.37
2018-10-17T12:40:49.285Z,70.20
2018-10-17T12:41:49.160Z,70.65
2018-10-17T12:42:49.144Z,71.40
2018-10-17T12:43:49.124Z,72.17
2018-10-17T12:44:49.393Z,71.33
2018-10-17T12:45:49.281Z,70.10
2018-10-17T12:46:49.075Z,69.32
2018-10-17T12:47:49.059Z,70.75
2018-10-17T12:48:49.042Z,71.14
2018-10-17T12:49:49.088Z,70.42
2018-10-17T12:50:49.064Z,71.72
2018-10-17T12:51:49.209Z,72.76
2018-10-17T12:52:49.139Z,70.65
2018-10-17T12:53:48.969Z,69.23
2018-10-17T12:54:48.968Z,67.70
2018-10-17T12:55:48.935Z,66.73
2018-10-17T12:56:48.922Z,67.47
2018-10-17T12:57:48.910Z,68.80
2018-10-17T12:58:48.887Z,68.51
2018-10-17T12:59:48.870Z,68.61
2018-10-17T13:00:48.869Z,68.80
2018-10-17T13:01:48.846Z,67.47
2018-10-17T13:02:48.827Z,67.86
2018-10-17T13:03:49.013Z,66.89
2018-10-17T13:04:48.796Z,66.60
2018-10-17T13:08:55.440Z,67.32
2018-10-17T13:09:55.225Z,67.41
2018-10-17T13:10:55.276Z,66.44
2018-10-17T13:11:55.195Z,66.50
2018-10-17T13:12:55.210Z,66.79
2018-10-17T13:13:55.167Z,68.90
2018-10-17T13:14:55.159Z,68.26
2018-10-17T13:15:55.135Z,69.10
2018-10-17T13:16:55.157Z,68.32
2018-10-17T13:17:55.124Z,69.00
2018-10-17T13:18:55.131Z,69.00
2018-10-17T13:19:57.903Z,69.00
2018-10-17T13:23:43.891Z,70.20
2018-10-17T13:34:34.071Z,74.58
2018-10-17T13:35:33.862Z,74.77
2018-10-17T13:36:33.834Z,74.39
2018-10-17T13:37:34.022Z,75.65
2018-10-17T13:41:22.625Z,77.16
2018-10-17T13:42:22.407Z,76.97
2018-10-17T13:44:07.368Z,78.19
2018-10-17T13:45:05.740Z,78.00
2018-10-17T13:46:04.507Z,78.48
2018-10-17T13:47:04.571Z,78.71
2018-10-17T13:48:04.473Z,77.94
2018-10-17T13:49:04.570Z,77.78
2018-10-17T13:50:04.455Z,76.23
2018-10-17T13:51:04.418Z,75.14
2018-10-17T13:52:04.398Z,74.01
2018-10-17T13:53:04.492Z,72.75
2018-10-17T13:54:04.361Z,71.62
2018-10-17T13:55:04.378Z,70.45
2018-10-17T13:56:04.327Z,70.32
2018-10-17T13:57:04.308Z,71.48
2018-10-17T13:58:04.325Z,72.27
2018-10-17T13:59:04.331Z,72.55
2018-10-17T14:00:04.259Z,72.36
2018-10-17T14:01:04.329Z,72.75
2018-10-17T14:02:04.221Z,72.17
2018-10-17T14:03:04.202Z,72.27
2018-10-17T14:04:04.270Z,71.68
2018-10-17T14:05:04.166Z,72.03
2018-10-17T14:06:04.222Z,73.39
2018-10-17T14:07:04.205Z,73.97
2018-10-17T14:08:04.115Z,73.68
2018-10-17T14:09:04.109Z,73.88
2018-10-17T14:10:04.079Z,74.04
2018-10-17T14:11:04.065Z,73.94
2018-10-17T14:12:04.062Z,75.65
2018-10-17T14:13:04.026Z,75.94
2018-10-17T14:14:04.008Z,75.45
2018-10-17T14:15:04.024Z,75.65
2018-10-17T14:16:03.977Z,75.84
2018-10-17T14:17:03.962Z,75.84
2018-10-17T14:18:03.979Z,75.20
2018-10-17T14:19:03.923Z,75.36
2018-10-17T14:20:03.905Z,76.14
2018-10-17T14:21:03.913Z,76.32
2018-10-17T14:22:03.869Z,77.11
2018-10-17T14:23:03.850Z,76.81
2018-10-17T14:24:03.893Z,76.52
2018-10-17T14:25:03.817Z,76.37
2018-10-17T14:26:03.796Z,75.92
2018-10-17T14:27:03.875Z,74.69
2018-10-17T14:28:03.767Z,73.58
2018-10-17T14:29:03.745Z,75.68
2018-10-17T14:30:03.789Z,75.98
2018-10-17T14:31:03.709Z,75.88
2018-10-17T14:32:03.693Z,75.98
2018-10-17T14:33:03.690Z,76.65
2018-10-17T14:34:03.654Z,76.27
2018-10-17T14:35:03.643Z,76.17
2018-10-17T14:36:03.742Z,76.23
2018-10-17T14:37:03.604Z,76.91
2018-10-17T14:38:03.764Z,77.84
2018-10-17T14:39:03.650Z,79.30
2018-10-17T14:40:03.549Z,79.64
2018-10-17T14:41:03.759Z,80.52
2018-10-17T14:42:03.568Z,81.05
2018-10-17T14:43:03.491Z,82.18
2018-10-17T14:44:03.480Z,83.15
2018-10-17T14:45:03.529Z,83.53
2018-10-17T14:48:10.185Z,84.89
2018-10-17T14:49:10.085Z,85.42
2018-10-17T14:50:09.865Z,86.01
2018-10-17T14:51:09.926Z,86.69
2018-10-17T14:52:10.030Z,87.41
2018-10-17T14:53:52.164Z,87.90
2018-10-17T14:54:52.146Z,88.48
2018-10-17T14:55:51.950Z,88.57
2018-10-17T14:56:51.923Z,89.40
2018-10-17T14:57:52.089Z,88.73
2018-10-17T14:58:51.873Z,90.08
2018-10-17T14:59:51.845Z,89.59
2018-10-17T15:00:51.824Z,90.08
2018-10-17T15:01:51.804Z,90.52
2018-10-17T15:02:51.796Z,90.61